Terminal Aerodrome Forecast
Issued by NWS

Home | Current Version | Previous Version | Graphics & Text | Print | Product List | Glossary On
Versions: 1 2 3 4 5 6 7 8 9 10 11 12 13 14 15 16 17 18 19 20
000
FTUS43 KBIS 041742
TAFDIK
TAF
KDIK 041742Z 0418/0518 36007KT P6SM OVC007
     FM042100 07010KT P6SM BKN020
     FM050600 09009KT P6SM OVC010
     FM051200 09006KT 5SM -SHRA VCTS OVC010CB
      TEMPO 0512/0516 4SM SHRA BR OVC010=

USA.gov is the U.S. government's official web portal to all federal, state and local government web resources and services.